Time;durP1;ratioP1;P1;durP2;ratioP2;P2;SDS_P1;SDS_P2;PMS_P1;PMS_P2;Temp;Humidity;BMP_temperature;BMP_pressure;BME280_temperature;BME280_humidity;BME280_pressure;Samples;Min_cycle;Max_cycle;Signal;HPM_P1;HPM_P2
2020/12/10 00:00:01;;;;;;;5.00;4.50;;;;;;;18.03;47.81;100292.41;5075105;28;20360;-67
2020/12/10 00:02:28;;;;;;;5.00;4.60;;;;;;;18.05;48.19;100299.34;5074995;28;20237;-67
2020/12/10 00:04:54;;;;;;;5.03;4.53;;;;;;;18.07;48.31;100297.31;5074018;28;20184;-57
2020/12/10 00:07:22;;;;;;;4.80;4.30;;;;;;;18.09;48.38;100294.41;5057352;28;20206;-59
2020/12/10 00:09:49;;;;;;;4.70;4.30;;;;;;;18.09;47.92;100295.25;5074835;28;20227;-59
2020/12/10 00:12:15;;;;;;;4.73;4.27;;;;;;;18.12;48.03;100293.22;5074584;28;20252;-60
2020/12/10 00:14:41;;;;;;;4.57;4.17;;;;;;;18.14;48.12;100291.19;5074707;28;20188;-59
2020/12/10 00:17:07;;;;;;;4.50;4.10;;;;;;;18.15;47.99;100279.31;5074733;28;20194;-57
2020/12/10 00:19:33;;;;;;;4.30;3.90;;;;;;;18.14;47.82;100280.34;5073479;28;20214;-55
2020/12/10 00:21:59;;;;;;;4.73;4.33;;;;;;;18.14;47.97;100280.34;5074500;28;20226;-62
2020/12/10 00:24:25;;;;;;;4.60;4.20;;;;;;;18.14;47.70;100283.06;5074335;28;20183;-62
2020/12/10 00:26:51;;;;;;;4.30;3.90;;;;;;;18.14;48.08;100280.34;5074443;28;20699;-63
2020/12/10 00:29:17;;;;;;;4.37;3.97;;;;;;;18.10;47.65;100269.03;5074444;28;20203;-62
2020/12/10 00:31:43;;;;;;;4.30;4.00;;;;;;;18.09;48.03;100268.19;5074551;28;20176;-62
2020/12/10 00:34:10;;;;;;;4.90;4.47;;;;;;;18.08;47.73;100266.50;5074519;28;20874;-56
2020/12/10 00:36:36;;;;;;;4.43;4.03;;;;;;;18.04;48.00;100265.16;5056913;28;20225;-59
2020/12/10 00:39:02;;;;;;;4.73;4.33;;;;;;;18.02;47.86;100269.91;5074073;28;20650;-59
2020/12/10 00:41:28;;;;;;;4.50;4.10;;;;;;;18.02;47.81;100261.78;5073331;28;20211;-68
2020/12/10 00:43:54;;;;;;;4.30;3.90;;;;;;;17.95;48.26;100265.34;5074250;28;20588;-68
2020/12/10 00:46:20;;;;;;;4.67;4.13;;;;;;;17.89;47.77;100256.06;5074193;28;20180;-62
2020/12/10 00:48:46;;;;;;;4.67;4.27;;;;;;;17.84;48.36;100258.47;5073108;28;20206;-62
2020/12/10 00:51:12;;;;;;;4.13;3.83;;;;;;;17.81;47.90;100255.25;5073964;28;20199;-67
2020/12/10 00:53:38;;;;;;;4.10;3.80;;;;;;;17.76;48.29;100255.78;5073915;28;20194;-68
2020/12/10 00:56:05;;;;;;;4.13;3.83;;;;;;;17.71;48.47;100247.31;5073781;28;20237;-67
2020/12/10 00:58:31;;;;;;;4.20;3.80;;;;;;;17.72;48.38;100246.31;5073739;28;20203;-62
2020/12/10 01:00:57;;;;;;;3.93;3.63;;;;;;;17.75;48.08;100254.09;5073713;28;20184;-57
2020/12/10 01:03:23;;;;;;;4.20;3.90;;;;;;;17.84;48.10;100244.94;5072862;28;20183;-57
2020/12/10 01:05:49;;;;;;;4.07;3.77;;;;;;;17.96;48.28;100250.78;5056225;28;20187;-57
2020/12/10 01:08:15;;;;;;;4.40;4.00;;;;;;;18.07;48.02;100247.72;5073589;28;20199;-68
2020/12/10 01:10:41;;;;;;;3.60;3.30;;;;;;;18.12;47.62;100241.75;5073702;28;20259;-62
2020/12/10 01:13:07;;;;;;;4.00;3.70;;;;;;;18.18;47.53;100238.34;5073617;28;20211;-62
2020/12/10 01:15:33;;;;;;;3.70;3.40;;;;;;;18.27;47.53;100238.13;5072750;28;20183;-56
2020/12/10 01:17:59;;;;;;;3.60;3.30;;;;;;;18.33;47.70;100232.00;5072671;28;20199;-66
2020/12/10 01:20:25;;;;;;;3.67;3.37;;;;;;;18.18;47.83;100197.69;5072546;28;20242;-56
2020/12/10 01:22:51;;;;;;;3.53;3.23;;;;;;;18.47;47.75;100230.41;5072496;28;20191;-57
2020/12/10 01:25:17;;;;;;;4.00;3.60;;;;;;;18.52;47.51;100225.28;5072474;28;20187;-56
2020/12/10 01:27:44;;;;;;;3.33;3.10;;;;;;;18.58;47.54;100223.72;5073239;28;20665;-57
2020/12/10 01:30:10;;;;;;;3.47;3.17;;;;;;;18.63;47.15;100233.00;5072302;28;20184;-56
2020/12/10 01:32:36;;;;;;;3.70;3.40;;;;;;;18.65;47.06;100214.69;5072277;28;20722;-67
2020/12/10 01:35:02;;;;;;;3.73;3.43;;;;;;;18.66;47.37;100221.81;5073218;28;20186;-60
2020/12/10 01:37:28;;;;;;;3.30;3.10;;;;;;;18.66;47.33;100221.81;5073249;28;20238;-59
2020/12/10 01:39:54;;;;;;;3.80;3.50;;;;;;;18.66;47.04;100220.97;5071978;28;20264;-68
2020/12/10 01:42:20;;;;;;;3.83;3.43;;;;;;;18.62;47.34;100223.19;5072023;28;20180;-68
2020/12/10 01:44:46;;;;;;;3.60;3.37;;;;;;;18.61;47.25;100224.19;5072999;28;20187;-67
2020/12/10 01:47:12;;;;;;;3.30;3.10;;;;;;;18.59;47.20;100214.56;5072868;28;20568;-57
2020/12/10 01:49:38;;;;;;;3.47;3.17;;;;;;;18.56;47.32;100215.75;5055259;28;20187;-67
2020/12/10 01:52:05;;;;;;;3.60;3.30;;;;;;;18.48;46.98;100223.94;5073261;28;20190;-67
2020/12/10 01:54:31;;;;;;;3.57;3.27;;;;;;;18.44;47.14;100219.88;5073023;28;20271;-59
2020/12/10 01:56:58;;;;;;;3.73;3.43;;;;;;;18.39;47.28;100215.00;5072863;28;20184;-62
2020/12/10 01:59:24;;;;;;;3.57;3.27;;;;;;;18.34;47.60;100220.13;5072801;28;20211;-62
2020/12/10 02:01:50;;;;;;;3.57;3.27;;;;;;;18.26;47.16;100219.34;5071904;28;20180;-55
2020/12/10 02:04:30;;;;;;;3.20;2.97;;;;;;;18.22;47.60;100212.59;5054966;28;20187;-67
2020/12/10 02:06:57;;;;;;;3.30;3.03;;;;;;;18.15;47.51;100214.31;5072060;28;20278;-60
2020/12/10 02:09:23;;;;;;;3.77;3.47;;;;;;;18.12;47.65;100217.38;5071454;28;20179;-60
2020/12/10 02:11:50;;;;;;;3.83;3.53;;;;;;;18.09;47.65;100221.28;5072513;28;20266;-58
2020/12/10 02:14:16;;;;;;;3.27;3.07;;;;;;;18.10;47.54;100212.97;5055027;28;20664;-57
2020/12/10 02:16:42;;;;;;;3.70;3.40;;;;;;;18.06;47.31;100208.09;5072361;28;20210;-57
2020/12/10 02:19:08;;;;;;;3.30;3.00;;;;;;;18.06;47.47;100203.53;5054646;28;20219;-57
2020/12/10 02:21:34;;;;;;;3.33;3.07;;;;;;;18.07;47.34;100204.38;5071357;28;20187;-56
2020/12/10 02:24:00;;;;;;;3.53;3.23;;;;;;;18.03;47.11;100193.06;5054767;28;20215;-67
2020/12/10 02:26:27;;;;;;;3.17;2.97;;;;;;;17.99;47.15;100197.16;5072220;28;20183;-67
2020/12/10 02:28:57;;;;;;;3.40;3.10;;;;;;;17.98;47.46;100187.34;5072147;28;20214;-68
2020/12/10 02:31:24;;;;;;;3.30;3.10;;;;;;;18.01;47.12;100180.72;5072153;28;20190;-68
2020/12/10 02:33:50;;;;;;;3.53;3.23;;;;;;;18.00;47.00;100181.75;5072224;28;20604;-59
2020/12/10 02:36:16;;;;;;;3.20;3.00;;;;;;;18.01;47.45;100178.84;5067903;28;20589;-59
2020/12/10 02:38:42;;;;;;;3.17;2.90;;;;;;;18.02;47.67;100185.13;5072030;28;20211;-63
2020/12/10 02:41:12;;;;;;;3.20;3.00;;;;;;;18.02;47.21;100180.53;5071948;28;20207;-63
2020/12/10 02:43:38;;;;;;;3.00;2.80;;;;;;;18.01;47.59;100167.19;5070902;28;20192;-63
2020/12/10 02:46:05;;;;;;;3.00;2.80;;;;;;;18.02;47.51;100167.00;5071755;28;20188;-67
2020/12/10 02:48:31;;;;;;;3.07;2.87;;;;;;;18.05;47.69;100166.66;5071868;28;20512;-69
2020/12/10 02:51:00;;;;;;;3.10;2.90;;;;;;;18.11;47.84;100167.78;5071621;28;20230;-67
2020/12/10 02:53:27;;;;;;;3.00;2.80;;;;;;;18.20;47.61;100165.88;5071830;28;20195;-68
2020/12/10 02:55:53;;;;;;;2.90;2.70;;;;;;;18.28;47.07;100152.28;5071723;28;20187;-68
2020/12/10 02:58:20;;;;;;;3.37;3.17;;;;;;;18.36;47.52;100157.63;5071611;28;20239;-63
2020/12/10 03:00:46;;;;;;;3.10;2.90;;;;;;;18.44;47.17;100156.72;5071617;28;20298;-68
2020/12/10 03:03:12;;;;;;;2.90;2.70;;;;;;;18.50;47.41;100159.56;5071625;28;20175;-63
2020/12/10 03:05:38;;;;;;;3.00;2.80;;;;;;;18.55;47.47;100151.72;5071678;28;20187;-68
2020/12/10 03:08:04;;;;;;;2.80;2.60;;;;;;;18.59;47.09;100157.63;5071570;28;20286;-59
2020/12/10 03:10:31;;;;;;;2.80;2.60;;;;;;;18.59;46.99;100155.75;5071657;28;20194;-59
2020/12/10 03:12:57;;;;;;;2.80;2.60;;;;;;;18.64;46.76;100157.94;5070625;28;20361;-59
2020/12/10 03:15:23;;;;;;;2.87;2.67;;;;;;;18.64;46.55;100158.78;5071592;28;20870;-60
2020/12/10 03:17:49;;;;;;;2.97;2.77;;;;;;;18.64;47.01;100152.53;5071545;28;20192;-60
2020/12/10 03:20:16;;;;;;;2.80;2.60;;;;;;;18.63;46.97;100153.56;5069694;28;20204;-68
2020/12/10 03:22:42;;;;;;;3.20;3.00;;;;;;;18.63;47.11;100150.84;5071401;28;20198;-68
2020/12/10 03:25:08;;;;;;;2.83;2.63;;;;;;;18.60;46.85;100145.75;5071269;28;20183;-68
2020/12/10 03:27:34;;;;;;;2.97;2.77;;;;;;;18.57;47.02;100130.72;5071155;28;20207;-58
2020/12/10 03:30:00;;;;;;;3.00;2.80;;;;;;;18.51;46.95;100125.19;5037185;28;20230;-60
2020/12/10 03:32:27;;;;;;;2.70;2.50;;;;;;;18.49;46.69;100130.78;5071244;28;20199;-59
2020/12/10 03:34:53;;;;;;;2.80;2.60;;;;;;;18.46;46.99;100136.56;5071303;28;20183;-63
2020/12/10 03:37:19;;;;;;;2.80;2.60;;;;;;;18.41;46.85;100131.69;5071198;28;20654;-60
2020/12/10 03:39:45;;;;;;;3.20;3.00;;;;;;;18.34;46.77;100133.44;5070290;28;20203;-60
2020/12/10 03:42:11;;;;;;;2.80;2.60;;;;;;;18.27;46.82;100137.06;5071139;28;20190;-63
2020/12/10 03:44:37;;;;;;;2.80;2.60;;;;;;;18.22;47.18;100137.59;5071254;28;20179;-58
2020/12/10 03:47:03;;;;;;;2.77;2.57;;;;;;;18.17;47.38;100128.31;5070290;28;20266;-58
2020/12/10 03:49:29;;;;;;;2.70;2.50;;;;;;;18.08;47.09;100131.06;5071071;28;20515;-63
2020/12/10 03:51:56;;;;;;;3.10;2.80;;;;;;;18.04;47.29;100132.47;5071289;28;20266;-57
2020/12/10 03:54:22;;;;;;;3.30;3.00;;;;;;;17.96;47.15;100121.66;5071337;28;20179;-56
2020/12/10 03:56:48;;;;;;;3.13;2.93;;;;;;;17.99;46.88;100123.19;5071251;28;20672;-62
2020/12/10 03:59:14;;;;;;;3.30;3.00;;;;;;;17.97;47.37;100117.09;5071021;28;20234;-68
2020/12/10 04:01:40;;;;;;;2.70;2.50;;;;;;;18.03;47.23;100111.81;5071137;28;20697;-68
2020/12/10 04:04:06;;;;;;;3.10;2.90;;;;;;;18.03;46.79;100110.97;5071031;28;20203;-68
2020/12/10 04:06:32;;;;;;;3.13;2.93;;;;;;;18.04;46.88;100112.66;5070953;28;20241;-68
2020/12/10 04:08:58;;;;;;;3.00;2.80;;;;;;;18.02;47.30;100110.13;5069824;28;20222;-68
2020/12/10 04:11:24;;;;;;;2.93;2.73;;;;;;;18.05;47.26;100108.94;5070767;28;20237;-68
2020/12/10 04:13:50;;;;;;;2.70;2.50;;;;;;;18.04;46.92;100097.25;5070038;28;20191;-68
2020/12/10 04:16:16;;;;;;;2.60;2.40;;;;;;;18.06;47.22;100097.06;5070897;28;20183;-68
2020/12/10 04:18:43;;;;;;;2.80;2.60;;;;;;;18.07;47.03;100091.47;5070808;28;20235;-69
2020/12/10 04:21:10;;;;;;;2.53;2.33;;;;;;;18.07;47.14;100096.91;5070962;28;20255;-68
2020/12/10 04:23:36;;;;;;;2.63;2.43;;;;;;;18.08;47.29;100103.16;5070250;28;20214;-68
2020/12/10 04:26:02;;;;;;;2.87;2.50;;;;;;;18.08;47.65;100097.75;5069956;28;20188;-68
2020/12/10 04:28:28;;;;;;;2.80;2.60;;;;;;;18.07;47.36;100113.13;5069909;28;20224;-68
2020/12/10 04:30:54;;;;;;;2.33;2.13;;;;;;;18.08;47.23;100108.56;5072532;28;20512;-69
2020/12/10 04:33:21;;;;;;;2.40;2.30;;;;;;;18.06;47.45;100111.47;5074604;28;20179;-69
2020/12/10 04:35:47;;;;;;;2.80;2.60;;;;;;;18.08;47.13;100109.41;5074470;28;20188;-68
2020/12/10 04:38:13;;;;;;;2.60;2.40;;;;;;;18.14;47.03;100109.72;5073522;28;20216;-63
2020/12/10 04:40:39;;;;;;;2.50;2.40;;;;;;;18.18;46.98;100102.91;5074622;28;20570;-67
2020/12/10 04:43:07;;;;;;;2.20;2.10;;;;;;;18.23;47.39;100108.66;5075615;28;20198;-68
2020/12/10 04:45:33;;;;;;;2.87;2.67;;;;;;;18.28;47.39;100104.38;5074309;28;20262;-68
2020/12/10 04:48:00;;;;;;;2.50;2.30;;;;;;;18.34;47.28;100100.91;5073994;28;20199;-68
2020/12/10 04:50:27;;;;;;;2.70;2.50;;;;;;;18.40;47.13;100107.47;5074025;28;20210;-68
2020/12/10 04:52:53;;;;;;;2.80;2.60;;;;;;;18.48;47.18;100099.28;5073986;28;20203;-59
2020/12/10 04:55:20;;;;;;;2.87;2.67;;;;;;;18.53;46.87;100094.16;5074000;28;20698;-59
2020/12/10 04:57:46;;;;;;;2.40;2.30;;;;;;;18.57;46.80;100102.75;5074173;28;20657;-59
2020/12/10 05:00:14;;;;;;;2.47;2.30;;;;;;;18.59;46.61;100108.84;5074048;28;20246;-59
2020/12/10 05:02:40;;;;;;;2.50;2.30;;;;;;;18.61;46.20;100113.06;5074217;28;20663;-59
2020/12/10 05:05:29;;;;;;;2.33;2.23;;;;;;;18.60;46.62;100114.06;5074108;28;20258;-60
2020/12/10 05:07:59;;;;;;;2.60;2.40;;;;;;;18.58;46.54;100108.00;5073842;28;20215;-60
2020/12/10 05:10:25;;;;;;;2.33;2.23;;;;;;;18.55;46.25;100096.69;5073951;28;20263;-58
2020/12/10 05:13:00;;;;;;;2.67;2.47;;;;;;;18.51;46.69;100096.22;5073826;28;20192;-58
2020/12/10 05:15:33;;;;;;;3.00;2.40;;;;;;;18.49;46.63;100100.97;5074038;28;20179;-60
2020/12/10 05:18:09;;;;;;;2.70;2.50;;;;;;;18.44;46.35;100114.22;5073505;28;20232;-60
2020/12/10 05:20:45;;;;;;;2.40;2.20;;;;;;;18.42;46.28;100116.25;5073764;28;20212;-60
2020/12/10 05:23:12;;;;;;;2.37;2.27;;;;;;;18.37;46.65;100113.25;5073629;28;20209;-60
2020/12/10 05:25:49;;;;;;;2.57;2.40;;;;;;;18.34;46.56;100108.22;5072775;28;20191;-63
2020/12/10 05:28:16;;;;;;;2.57;2.37;;;;;;;18.24;46.38;100097.63;5072478;28;20214;-63
2020/12/10 05:30:46;;;;;;;2.60;2.40;;;;;;;18.19;46.87;100099.16;5073173;28;20604;-63
2020/12/10 05:33:13;;;;;;;2.67;2.47;;;;;;;18.22;46.81;100113.22;5073470;28;20191;-59
2020/12/10 05:35:39;;;;;;;2.50;2.30;;;;;;;18.24;46.55;100113.03;5073285;28;20612;-59
2020/12/10 05:38:11;;;;;;;2.43;2.33;;;;;;;18.24;46.87;100111.16;5073314;28;20203;-68
2020/12/10 05:40:40;;;;;;;2.23;2.13;;;;;;;18.23;46.56;100114.06;5073439;28;20207;-69
2020/12/10 05:43:06;;;;;;;2.17;2.07;;;;;;;18.23;46.71;100105.94;5072281;28;20245;-69
2020/12/10 05:45:37;;;;;;;2.60;2.40;;;;;;;18.23;47.10;100100.53;5073567;28;20378;-68
2020/12/10 05:48:03;;;;;;;2.50;2.30;;;;;;;18.22;46.69;100109.66;5073278;28;20221;-67
2020/12/10 05:50:33;;;;;;;2.30;2.20;;;;;;;18.20;46.87;100109.81;5071837;28;20647;-67
2020/12/10 05:53:10;;;;;;;2.20;2.10;;;;;;;18.19;46.73;100110.00;5071969;28;20529;-68
2020/12/10 05:55:40;;;;;;;2.50;2.30;;;;;;;18.18;46.97;100105.59;5072836;28;20254;-62
2020/12/10 05:58:06;;;;;;;2.50;2.30;;;;;;;18.17;46.68;100106.63;5072843;28;20871;-55
2020/12/10 06:00:33;;;;;;;2.30;2.20;;;;;;;18.16;46.91;100102.25;5072108;28;20219;-61
2020/12/10 06:02:59;;;;;;;2.27;2.17;;;;;;;18.16;47.10;100107.66;5071873;28;20588;-60
2020/12/10 06:05:26;;;;;;;2.10;2.00;;;;;;;18.15;47.05;100103.25;5072830;28;20236;-56
2020/12/10 06:08:08;;;;;;;2.30;2.20;;;;;;;18.10;47.21;100107.38;5072693;28;20210;-56
2020/12/10 06:10:41;;;;;;;2.30;2.20;;;;;;;18.09;46.68;100100.25;5071926;28;20607;-58
2020/12/10 06:13:08;;;;;;;2.10;2.00;;;;;;;18.07;46.94;100107.72;5055312;28;20188;-59
2020/12/10 06:15:34;;;;;;;2.37;2.27;;;;;;;18.03;46.67;100103.69;5072509;28;20180;-59
2020/12/10 06:18:04;;;;;;;2.30;2.20;;;;;;;18.05;46.89;100104.34;5071536;28;20206;-59
2020/12/10 06:20:36;;;;;;;2.47;2.30;;;;;;;18.09;46.68;100105.69;5072508;28;20199;-59
2020/12/10 06:23:28;;;;;;;2.40;2.20;;;;;;;18.17;46.99;100106.63;5072542;28;20191;-62
2020/12/10 06:25:55;;;;;;;2.10;2.00;;;;;;;18.24;46.62;100096.78;5072504;28;20172;-57
2020/12/10 06:28:24;;;;;;;2.50;2.30;;;;;;;18.28;46.63;100096.22;5054854;28;20307;-57
2020/12/10 06:31:09;;;;;;;2.47;2.30;;;;;;;18.34;46.64;100091.94;5054783;28;20187;-68
2020/12/10 06:33:36;;;;;;;2.10;2.00;;;;;;;18.39;46.98;100087.66;5072239;28;20188;-58
2020/12/10 06:36:24;;;;;;;1.97;1.87;;;;;;;18.46;46.70;100098.63;5072298;28;20264;-57
2020/12/10 06:38:51;;;;;;;2.03;1.83;;;;;;;18.56;46.89;100098.38;5062847;28;20539;-57
2020/12/10 06:41:17;;;;;;;2.30;2.10;;;;;;;18.61;46.87;100094.06;5071662;28;20202;-59
2020/12/10 06:43:43;;;;;;;1.90;1.80;;;;;;;18.68;46.63;100095.06;5071822;28;20586;-59
2020/12/10 06:46:09;;;;;;;1.90;1.80;;;;;;;18.72;46.73;100095.56;5072079;28;20184;-62
2020/12/10 06:48:43;;;;;;;2.20;2.10;;;;;;;18.75;46.27;100097.88;5072298;28;20207;-62
2020/12/10 06:51:16;;;;;;;2.27;2.17;;;;;;;18.77;46.45;100095.00;5072053;28;20266;-56
2020/12/10 06:54:00;;;;;;;2.20;2.10;;;;;;;18.77;46.45;100103.13;5071741;28;20239;-56
2020/12/10 06:56:30;;;;;;;2.20;2.10;;;;;;;18.77;46.44;100105.84;5071937;28;20191;-57
2020/12/10 06:58:59;;;;;;;2.40;2.20;;;;;;;18.76;46.32;100106.88;5070088;28;20215;-57
2020/12/10 07:01:37;;;;;;;2.20;2.10;;;;;;;18.73;46.24;100107.25;5070541;28;20244;-56
2020/12/10 07:04:32;;;;;;;2.10;2.00;;;;;;;18.68;46.32;100111.31;5072074;28;20183;-56
2020/12/10 07:07:18;;;;;;;2.17;2.07;;;;;;;18.62;46.35;100117.47;5072044;28;20215;-55
2020/12/10 07:09:58;;;;;;;2.20;2.10;;;;;;;18.57;46.11;100124.44;5071615;28;20595;-57
2020/12/10 07:12:26;;;;;;;2.00;1.90;;;;;;;18.49;46.15;100133.50;5071509;28;20184;-58
2020/12/10 07:15:10;;;;;;;2.30;2.20;;;;;;;18.17;46.26;100109.34;5071545;28;20210;-63
2020/12/10 07:17:36;;;;;;;2.30;2.20;;;;;;;18.36;46.48;100130.53;5071519;28;20210;-68
2020/12/10 07:20:02;;;;;;;2.23;2.13;;;;;;;18.30;46.56;100131.28;5071413;28;20589;-63
2020/12/10 07:22:28;;;;;;;2.10;2.00;;;;;;;18.25;46.14;100131.81;5071484;28;20207;-59
2020/12/10 07:24:54;;;;;;;2.40;2.30;;;;;;;18.19;46.27;100137.09;5071561;28;20266;-60
2020/12/10 07:27:20;;;;;;;2.20;2.10;;;;;;;18.15;46.60;100141.19;5071313;28;20268;-60
2020/12/10 07:29:52;;;;;;;2.30;2.20;;;;;;;18.10;46.24;100144.44;5071648;28;20191;-60
2020/12/10 07:32:19;;;;;;;2.50;2.30;;;;;;;18.01;46.40;100146.34;5071676;28;20188;-57
2020/12/10 07:34:45;;;;;;;2.40;2.30;;;;;;;17.97;46.73;100145.00;5070723;28;20194;-63
2020/12/10 07:37:13;;;;;;;2.57;2.37;;;;;;;17.96;46.61;100151.44;5069980;28;20193;-63
2020/12/10 07:39:39;;;;;;;2.70;2.20;;;;;;;18.01;46.76;100157.19;5055515;28;20212;-68
2020/12/10 07:42:05;;;;;;;2.37;2.27;;;;;;;18.01;46.74;100157.19;5050444;28;20687;-60
2020/12/10 07:44:33;;;;;;;2.10;2.00;;;;;;;18.02;46.79;100152.63;5051246;28;20640;-59
2020/12/10 07:47:00;;;;;;;2.23;2.13;;;;;;;18.06;46.76;100160.22;5050406;28;20225;-60
2020/12/10 07:49:31;;;;;;;2.40;2.20;;;;;;;18.09;46.77;100156.28;5050189;28;20200;-60
2020/12/10 07:52:04;;;;;;;2.10;2.00;;;;;;;18.16;46.76;100159.13;5051514;28;20188;-59
2020/12/10 07:54:46;;;;;;;2.30;2.10;;;;;;;18.27;46.55;100150.59;5051230;28;20196;-60
2020/12/10 07:57:40;;;;;;;2.07;1.97;;;;;;;18.36;46.63;100150.34;5051034;28;20191;-60
2020/12/10 08:00:08;;;;;;;2.10;2.00;;;;;;;18.47;46.68;100138.25;5051739;28;20216;-68
2020/12/10 08:02:54;;;;;;;2.00;1.90;;;;;;;18.58;46.43;100143.25;5050160;28;20187;-68
2020/12/10 08:05:20;;;;;;;2.00;1.90;;;;;;;18.66;46.42;100143.19;5051597;28;20184;-69
2020/12/10 08:07:50;;;;;;;2.13;2.03;;;;;;;18.75;46.71;100135.00;5055086;28;20204;-69
2020/12/10 08:10:24;;;;;;;2.00;1.80;;;;;;;18.79;46.73;100128.19;5054174;28;20231;-69
2020/12/10 08:13:11;;;;;;;2.17;2.07;;;;;;;18.84;46.55;100131.19;5055115;28;20283;-60
2020/12/10 08:15:38;;;;;;;2.17;2.07;;;;;;;18.86;46.35;100135.38;5062736;28;20202;-64
2020/12/10 08:18:11;;;;;;;2.20;2.10;;;;;;;18.88;46.23;100132.50;5071891;28;20555;-59
2020/12/10 08:20:44;;;;;;;2.97;2.70;;;;;;;18.87;46.17;100125.38;5071326;28;20242;-69
2020/12/10 08:23:11;;;;;;;2.63;2.43;;;;;;;18.88;46.40;100132.50;5071011;28;20191;-61
2020/12/10 08:25:38;;;;;;;2.80;2.60;;;;;;;18.83;46.37;100124.06;5071870;28;20294;-61
2020/12/10 08:28:05;;;;;;;2.70;2.50;;;;;;;18.84;46.29;100129.31;5071854;28;20607;-59
2020/12/10 08:30:31;;;;;;;2.60;2.40;;;;;;;18.81;46.65;100123.41;5070853;28;20179;-59
2020/12/10 08:32:59;;;;;;;2.67;2.47;;;;;;;18.76;46.58;100126.69;5070521;28;20190;-59
2020/12/10 08:35:25;;;;;;;3.17;2.87;;;;;;;18.75;46.58;100122.28;5070597;28;20187;-58
2020/12/10 08:37:51;;;;;;;2.60;2.40;;;;;;;18.68;46.56;100115.91;5070394;28;20248;-55
2020/12/10 08:40:27;;;;;;;2.67;2.47;;;;;;;18.60;46.35;100111.38;5070431;28;20268;-63
2020/12/10 08:42:53;;;;;;;3.03;2.50;;;;;;;18.54;46.34;100120.25;5070597;28;20187;-69
2020/12/10 08:45:30;;;;;;;2.70;2.50;;;;;;;18.50;46.60;100118.91;5070456;28;20187;-69
2020/12/10 08:47:58;;;;;;;2.90;2.70;;;;;;;18.47;46.40;100121.16;5053835;28;20206;-69
2020/12/10 08:50:26;;;;;;;2.50;2.30;;;;;;;18.41;45.97;100115.41;5070324;28;20218;-69
2020/12/10 08:52:59;;;;;;;2.47;2.27;;;;;;;18.46;46.10;100128.44;5071306;28;20190;-68
2020/12/10 08:55:35;;;;;;;2.70;2.50;;;;;;;18.45;46.00;100132.16;5071476;28;20207;-67
2020/12/10 08:58:01;;;;;;;2.50;2.40;;;;;;;18.44;46.53;100129.63;5071212;28;20253;-68
2020/12/10 09:00:27;;;;;;;2.53;2.33;;;;;;;18.42;46.53;100122.53;5071083;28;20235;-68
2020/12/10 09:02:53;;;;;;;2.30;2.20;;;;;;;18.41;46.34;100122.69;5070305;28;20266;-69
2020/12/10 09:05:19;;;;;;;2.20;2.10;;;;;;;18.39;46.54;100122.88;5071384;28;20191;-68
2020/12/10 09:07:46;;;;;;;2.43;2.23;;;;;;;18.40;46.25;100118.31;5071062;28;20211;-68
2020/12/10 09:10:12;;;;;;;2.20;2.10;;;;;;;18.40;46.48;100129.16;5071049;28;20691;-68
2020/12/10 09:12:38;;;;;;;2.50;2.30;;;;;;;18.40;46.21;100131.84;5071308;28;20195;-68
2020/12/10 09:15:04;;;;;;;2.10;2.00;;;;;;;18.39;46.29;100130.19;5070178;28;20191;-68
2020/12/10 09:17:30;;;;;;;2.00;1.90;;;;;;;18.37;46.20;100129.50;5070865;28;20857;-68
2020/12/10 09:19:56;;;;;;;2.00;1.90;;;;;;;18.35;46.66;100132.41;5070851;28;20211;-69
2020/12/10 09:22:22;;;;;;;2.20;2.10;;;;;;;18.34;46.59;100140.72;5070916;28;20188;-68
2020/12/10 09:24:49;;;;;;;2.20;2.00;;;;;;;18.31;46.63;100136.50;5069550;28;20643;-68
2020/12/10 09:27:20;;;;;;;2.20;2.10;;;;;;;18.27;46.30;100142.47;5070718;28;20297;-68
2020/12/10 09:29:47;;;;;;;2.23;2.03;;;;;;;18.23;46.62;100139.28;5070745;28;20183;-68
2020/12/10 09:32:14;;;;;;;2.17;2.07;;;;;;;18.19;46.76;100139.78;5070724;28;20203;-68
2020/12/10 09:34:40;;;;;;;2.23;2.13;;;;;;;18.12;46.82;100139.69;5070742;28;20198;-68
2020/12/10 09:37:06;;;;;;;2.10;2.00;;;;;;;18.06;46.47;100143.94;5070601;28;20536;-68
2020/12/10 09:39:33;;;;;;;2.17;2.07;;;;;;;18.00;46.47;100144.69;5070356;28;20208;-67
2020/12/10 09:42:00;;;;;;;1.93;1.83;;;;;;;17.99;46.59;100158.41;5070326;28;20180;-69
2020/12/10 09:44:26;;;;;;;2.10;2.00;;;;;;;17.96;46.40;100148.72;5064111;28;20579;-69
2020/12/10 09:46:52;;;;;;;2.30;2.20;;;;;;;17.99;46.84;100143.00;5063012;28;20392;-69
2020/12/10 09:49:19;;;;;;;2.50;2.30;;;;;;;17.99;46.86;100140.28;5070376;28;20199;-69
2020/12/10 09:51:48;;;;;;;2.50;2.30;;;;;;;18.01;46.46;100146.34;5062107;28;20276;-68
2020/12/10 09:59:25;;;;;;;2.10;2.00;;;;;;;18.15;46.52;100135.75;5053833;28;20215;-68
2020/12/10 10:01:51;;;;;;;1.90;1.80;;;;;;;18.28;46.35;100144.16;5052476;28;20951;-64
2020/12/10 10:04:19;;;;;;;2.00;1.90;;;;;;;18.39;46.74;100136.44;5053238;28;20199;-67
2020/12/10 10:09:54;;;;;;;2.20;2.10;;;;;;;18.59;47.06;100128.66;5067654;28;20438;-63
2020/12/10 10:12:20;;;;;;;3.13;2.30;;;;;;;18.69;47.53;100123.88;5037149;28;20830;-63
2020/12/10 10:14:48;;;;;;;2.20;2.10;;;;;;;18.74;47.59;100125.19;5034294;28;20202;-68
2020/12/10 10:17:15;;;;;;;2.20;2.10;;;;;;;18.80;47.21;100124.44;5045315;28;20218;-69
2020/12/10 10:19:41;;;;;;;2.47;2.20;;;;;;;18.85;47.12;100116.59;5037939;28;20211;-60
2020/12/10 10:22:08;;;;;;;2.17;2.07;;;;;;;18.84;46.97;100123.03;5049499;28;20253;-60
2020/12/10 10:24:34;;;;;;;2.00;1.90;;;;;;;18.79;47.16;100111.91;5049451;28;20191;-60
2020/12/10 10:27:00;;;;;;;2.60;2.40;;;;;;;18.79;46.88;100122.75;5049660;28;20177;-60
2020/12/10 10:29:26;;;;;;;3.60;2.30;;;;;;;18.77;47.23;100112.09;5055152;28;20658;-66
2020/12/10 10:31:52;;;;;;;2.40;2.20;;;;;;;18.76;47.30;100117.72;5069686;28;20184;-58
2020/12/10 10:34:19;;;;;;;2.20;2.00;;;;;;;18.74;47.15;100108.91;5064919;28;20206;-58
2020/12/10 10:36:45;;;;;;;2.37;2.17;;;;;;;18.69;47.33;100112.16;5052072;28;20216;-58
2020/12/10 10:39:11;;;;;;;2.40;2.20;;;;;;;18.67;47.41;100106.91;5070123;28;20215;-58
2020/12/10 10:41:45;;;;;;;2.60;2.40;;;;;;;18.63;46.97;100115.59;5069730;28;20215;-67
2020/12/10 10:44:11;;;;;;;2.27;2.17;;;;;;;18.57;46.93;100105.47;5071679;28;20681;-60
2020/12/10 10:46:37;;;;;;;2.20;2.10;;;;;;;18.59;47.15;100106.97;5072084;28;20175;-60
2020/12/10 10:49:03;;;;;;;2.40;2.20;;;;;;;18.50;46.77;100099.94;5071219;28;20250;-60
2020/12/10 10:51:29;;;;;;;3.00;2.80;;;;;;;18.49;46.60;100092.84;5071620;28;20199;-59
2020/12/10 10:53:56;;;;;;;2.90;2.70;;;;;;;18.47;46.69;100092.19;5070969;28;20611;-61
2020/12/10 10:56:22;;;;;;;2.97;2.70;;;;;;;18.47;46.65;100092.19;5072158;28;20183;-68
2020/12/10 10:58:48;;;;;;;2.50;2.40;;;;;;;18.47;46.20;100092.19;5071771;28;20672;-68
2020/12/10 11:01:15;;;;;;;2.40;2.20;;;;;;;18.44;46.68;100088.97;5071774;28;20250;-67
2020/12/10 11:03:41;;;;;;;2.40;2.20;;;;;;;18.41;46.57;100095.59;5070578;28;20184;-66
2020/12/10 11:06:08;;;;;;;2.50;2.30;;;;;;;18.40;46.42;100088.50;5071309;28;20188;-67
2020/12/10 11:08:34;;;;;;;2.57;2.37;;;;;;;18.38;46.55;100093.25;5070668;28;20277;-60
2020/12/10 11:11:00;;;;;;;2.30;2.20;;;;;;;18.35;46.52;100085.50;5071362;28;20199;-64
2020/12/10 11:13:27;;;;;;;2.60;2.40;;;;;;;18.34;46.61;100081.94;5071646;28;20848;-63
2020/12/10 11:15:53;;;;;;;2.70;2.50;;;;;;;18.32;46.86;100073.16;5071287;28;20411;-63
2020/12/10 11:18:19;;;;;;;2.43;2.23;;;;;;;18.31;46.61;100071.50;5071638;28;20640;-63
2020/12/10 11:20:45;;;;;;;2.60;2.40;;;;;;;18.31;46.99;100078.78;5070511;28;20218;-63
2020/12/10 11:23:13;;;;;;;2.40;2.20;;;;;;;18.30;46.75;100064.38;5071476;28;20624;-64
2020/12/10 11:25:39;;;;;;;2.50;2.30;;;;;;;18.30;46.84;100063.53;5071475;28;20210;-63
2020/12/10 11:28:05;;;;;;;2.20;2.00;;;;;;;18.27;46.54;100059.34;5071150;28;20717;-63
2020/12/10 11:30:32;;;;;;;2.50;2.30;;;;;;;18.27;46.91;100055.78;5071339;28;20183;-67
2020/12/10 11:32:58;;;;;;;2.47;2.27;;;;;;;18.26;46.93;100062.22;5070095;28;20244;-68
2020/12/10 11:35:24;;;;;;;2.57;2.37;;;;;;;18.26;46.54;100062.22;5071115;28;20203;-60